Latest Weather Observations for Kilmore Gap

IDV60801

Issued at 10:02 am EST Saturday 30 May 2015 (issued every 30 minutes, with the page automatically refreshed every 10 minutes)

About weather observations | Map of weather stations | Latest weather observations for VIC | Other Formats
Station Details ID: 088162 Name: KILMORE GAP Lat: -37.38 Lon: 144.97 Height: 527.8 m
Data from the previous 72 hours. | See also: Recent months at Kilmore Gap
Date/Time
EST
Temp
°C
App
Temp
°C
Dew
Point
Rel
Hum
%
Delta-T
°C
Wind Press
QNH
hPa
Press
MSL
hPa
Rain
since 9 am
mm
Dir
 
Spd
km/h
Gust
km/h
Spd
kts
Gust
kts
30/10:00am 8.4 2.9 5.9 84 1.2 N 24 30 13 16 1020.9 - 0.0
30/09:30am 8.3 2.8 6.1 86 1.0 NNW 24 33 13 18 1020.9 - 0.0
30/09:00am 7.9 2.9 6.5 91 0.7 NNW 22 30 12 16 1021.0 1021.3 0.0
30/08:30am 7.7 2.0 6.5 92 0.6 N 26 37 14 20 1020.7 - 0.0
30/08:00am 7.4 2.4 6.3 93 0.5 N 22 30 12 16 1020.7 - 0.0
30/07:30am 7.4 1.2 6.0 91 0.7 NNW 28 32 15 17 1020.6 - 0.0
30/07:00am 7.4 1.5 6.0 91 0.7 NNW 26 32 14 17 1020.4 - 0.0
30/06:30am 7.3 1.8 6.1 92 0.6 NNW 24 28 13 15 1020.4 - 0.0
30/06:00am 7.3 2.2 6.1 92 0.6 NNW 22 28 12 15 1020.4 1020.8 0.0
30/05:30am 7.4 1.9 6.0 91 0.7 NNW 24 30 13 16 1020.4 - 0.0
30/05:00am 7.9 2.3 5.5 85 1.1 NNW 24 33 13 18 1020.3 - 0.0
30/04:30am 7.2 2.4 5.7 90 0.7 N 20 24 11 13 1020.3 - 0.0
30/04:00am 7.1 2.5 5.7 91 0.6 N 19 22 10 12 1020.4 - 0.0
30/03:30am 7.3 2.7 5.6 89 0.8 N 19 24 10 13 1020.8 - 0.0
30/03:00am 7.5 2.7 5.6 88 0.9 N 20 24 11 13 1020.8 1021.1 0.0
30/02:30am 7.5 2.6 5.3 86 1.0 N 20 24 11 13 1021.0 - 0.0
30/02:00am 7.8 2.9 5.3 84 1.2 N 20 26 11 14 1021.1 - 0.0
30/01:30am 7.5 2.2 5.1 85 1.1 N 22 28 12 15 1021.3 - 0.0
30/01:00am 7.4 2.5 5.0 85 1.1 N 20 24 11 13 1021.8 - 0.0
30/12:30am 7.9 3.2 5.2 83 1.2 N 19 24 10 13 1022.1 - 0.0
30/12:00am 8.0 2.8 5.5 84 1.2 NNW 22 33 12 18 1022.4 1022.8 0.0
 
Date/Time
EST
Temp
°C
App
Temp
°C
Dew
Point
Rel
Hum
%
Delta-T
°C
Wind Press
QNH
hPa
Press
MSL
hPa
Rain
since 9 am
mm
Dir
 
Spd
km/h
Gust
km/h
Spd
kts
Gust
kts
29/11:30pm 8.2 3.7 4.4 77 1.7 N 17 19 9 10 1022.4 - 0.0
29/11:00pm 8.2 3.7 4.4 77 1.7 N 17 20 9 11 1022.4 - 0.0
29/10:30pm 8.3 3.4 4.3 76 1.8 N 19 20 10 11 1022.6 - 0.0
29/10:00pm 7.9 2.8 3.9 76 1.8 N 20 22 11 12 1022.7 - 0.0
29/09:30pm 8.7 4.2 4.3 74 2.0 N 17 19 9 10 1022.7 - 0.0
29/09:00pm 8.7 3.8 4.3 74 2.0 N 19 20 10 11 1022.6 1022.9 0.0
29/08:30pm 8.5 4.0 4.3 75 1.9 N 17 20 9 11 1022.7 - 0.0
29/08:00pm 8.3 3.4 4.1 75 1.9 N 19 22 10 12 1022.6 - 0.0
29/07:30pm 8.4 3.3 4.0 74 2.0 NNW 20 24 11 13 1022.6 - 0.0
29/07:00pm 8.1 3.0 3.9 75 1.9 NNW 20 26 11 14 1022.2 - 0.0
29/06:30pm 8.6 3.5 4.0 73 2.1 NNW 20 24 11 13 1021.9 - 0.0
29/06:00pm 8.3 3.7 3.8 73 2.0 NNW 17 22 9 12 1021.8 1022.2 0.0
29/05:30pm 8.7 4.1 3.9 72 2.2 NW 17 20 9 11 1021.7 - 0.0
29/05:00pm 9.3 5.1 3.9 69 2.4 NNW 15 20 8 11 1021.5 - 0.0
29/04:30pm 9.9 5.8 4.1 67 2.6 NW 15 20 8 11 1021.3 - 0.0
29/04:00pm 10.3 6.2 4.2 66 2.8 NW 15 22 8 12 1021.3 - 0.0
29/03:30pm 10.7 6.2 4.4 65 2.9 NW 17 28 9 15 1021.3 - 0.0
29/03:00pm 10.3 5.8 4.2 66 2.8 NW 17 24 9 13 1021.2 1021.5 0.0
29/02:30pm 10.5 6.4 4.2 65 2.9 WNW 15 24 8 13 1021.0 - 0.0
29/02:00pm 10.9 7.2 4.6 65 2.9 WNW 13 19 7 10 1021.1 - 0.0
29/01:30pm 10.4 6.0 4.5 67 2.7 NW 17 24 9 13 1021.2 - 0.0
29/01:00pm 11.1 7.1 4.8 65 2.9 WNW 15 22 8 12 1021.3 - 0.0
29/12:30pm 10.4 6.8 4.8 68 2.6 NW 13 17 7 9 1021.6 - 0.0
29/12:00pm 10.1 5.9 3.6 64 2.9 W 15 19 8 10 1021.9 1022.3 0.0
29/11:30am 11.3 7.2 4.5 63 3.2 W 15 22 8 12 1022.0 - 0.0
29/11:00am 10.4 5.9 4.3 66 2.8 WNW 17 22 9 12 1022.2 - 0.0
29/10:30am 10.1 6.5 4.9 70 2.4 NW 13 20 7 11 1022.2 - 0.0
29/10:00am 9.6 6.3 4.6 71 2.3 WNW 11 17 6 9 1022.4 - 0.0
29/09:30am 9.1 5.9 5.1 76 1.9 NW 11 17 6 9 1022.2 - 0.0
29/09:00am 7.8 4.0 4.0 77 1.7 WNW 13 20 7 11 1021.9 1022.3 0.0
29/08:30am 7.5 4.0 3.7 77 1.7 WNW 11 17 6 9 1021.5 - 0.0
29/08:00am 6.5 3.3 2.9 78 1.5 WNW 9 13 5 7 1021.2 - 0.0
29/07:30am 6.3 3.0 2.6 77 1.6 WNW 9 15 5 8 1020.9 - 0.0
29/07:00am 6.7 1.9 2.6 75 1.8 W 17 20 9 11 1020.6 - 0.0
29/06:30am 6.7 1.9 2.6 75 1.8 W 17 22 9 12 1020.2 - 0.0
29/06:00am 7.3 2.6 3.0 74 1.9 WSW 17 22 9 12 1020.1 1020.5 0.0
29/05:30am 7.4 3.4 2.9 73 2.0 WSW 13 19 7 10 1019.9 - 0.0
29/05:00am 7.4 4.2 2.9 73 2.0 WSW 9 15 5 8 1019.5 - 0.0
29/04:30am 8.4 3.3 3.1 69 2.3 W 19 28 10 15 1019.1 - 0.0
29/04:00am 8.1 5.4 3.6 73 2.0 S 7 13 4 7 1019.2 - 0.0
29/03:30am 9.0 5.2 4.0 71 2.3 WSW 13 19 7 10 1019.2 - 0.0
29/03:00am 8.9 4.9 4.9 76 1.8 SW 15 22 8 12 1019.1 1019.4 0.0
29/02:30am 9.1 6.0 7.1 87 1.0 SSW 13 19 7 10 1018.8 - 0.0
29/02:05am 9.1 6.1 7.9 92 0.6 SW 13 17 7 9 1018.8 - 0.0
29/02:00am 9.1 6.6 8.0 93 0.5 SW 11 15 6 8 1018.6 - 0.0
29/01:30am 8.8 6.7 8.2 96 0.3 SE 9 13 5 7 1018.2 - 0.0
29/01:12am 9.0 6.9 8.1 94 0.4 SSE 9 11 5 6 1018.0 - 0.0
29/01:00am 9.1 7.4 8.2 94 0.4 S 7 11 4 6 1018.0 - 0.0
29/12:30am 9.5 7.4 8.4 93 0.5 SE 9 11 5 6 1018.0 - 0.0
29/12:00am 9.7 7.2 8.1 90 0.8 SSE 11 13 6 7 1017.6 1017.9 0.0
 
Date/Time
EST
Temp
°C
App
Temp
°C
Dew
Point
Rel
Hum
%
Delta-T
°C
Wind Press
QNH
hPa
Press
MSL
hPa
Rain
since 9 am
mm
Dir
 
Spd
km/h
Gust
km/h
Spd
kts
Gust
kts
28/11:30pm 10.8 7.8 7.5 80 1.6 NW 13 20 7 11 1017.4 - 0.0
28/11:00pm 11.1 6.9 7.6 79 1.7 NW 19 24 10 13 1017.3 - 0.0
28/10:30pm 11.4 7.6 7.5 77 1.9 NW 17 28 9 15 1017.4 - 0.0
28/10:00pm 11.0 7.1 8.8 86 1.1 NNW 19 22 10 12 1017.3 - 0.0
28/09:30pm 10.6 7.1 10.1 97 0.3 N 19 28 10 15 1017.1 - 0.0
28/09:00pm 11.0 7.0 10.4 96 0.3 N 22 28 12 15 1017.0 1017.3 0.0
28/08:30pm 11.3 6.2 10.5 95 0.4 N 28 37 15 20 1016.7 - 0.0
28/08:00pm 11.5 5.6 10.4 93 0.6 N 32 39 17 21 1016.2 - 0.0
28/07:30pm 11.7 5.6 10.3 91 0.7 N 33 43 18 23 1015.7 - 0.0
28/07:00pm 12.0 4.6 9.7 86 1.2 N 39 46 21 25 1015.3 - 0.0
28/06:30pm 12.3 4.8 9.3 82 1.6 N 39 48 21 26 1015.2 - 0.0
28/06:00pm 12.3 5.2 9.5 83 1.5 N 37 44 20 24 1015.1 1015.3 0.0
28/05:30pm 12.2 5.4 9.4 83 1.5 N 35 43 19 23 1014.9 - 0.0
28/05:00pm 12.7 6.4 9.0 78 1.9 N 32 39 17 21 1014.9 - 0.0
28/04:30pm 13.8 6.8 8.4 70 2.8 N 35 43 19 23 1015.1 - 0.0
28/04:00pm 14.1 7.1 8.3 68 3.0 N 35 46 19 25 1015.1 - 0.0
28/03:30pm 14.6 8.2 9.2 70 2.8 N 33 44 18 24 1015.2 - 0.0
28/03:00pm 13.4 7.3 10.6 83 1.5 N 33 44 18 24 1015.4 1015.7 0.0
28/02:51pm 13.6 7.6 10.8 83 1.5 N 33 41 18 22 1015.6 - 0.0
28/02:30pm 13.7 7.8 11.0 84 1.5 N 33 41 18 22 1015.6 - 0.0
28/02:14pm 12.9 7.2 11.3 90 0.9 N 32 41 17 22 1015.4 - 0.0
28/02:00pm 13.3 7.0 11.2 87 1.1 N 35 44 19 24 1015.4 - 0.0
28/01:30pm 12.2 4.9 10.1 87 1.1 N 39 52 21 28 1015.9 - 0.0
28/01:00pm 13.2 6.7 10.4 83 1.5 N 35 44 19 24 1016.0 - 0.0
28/12:30pm 12.9 5.6 10.1 83 1.5 N 39 50 21 27 1016.6 - 0.0
28/12:22pm 13.1 5.9 10.6 85 1.3 N 39 50 21 27 1016.7 - 0.0
28/12:00pm 12.3 6.3 12.1 99 0.1 N 35 44 19 24 1017.0 1017.3 0.0
28/11:30am 10.7 4.2 10.5 99 0.1 N 35 43 19 23 1017.5 - 0.0
28/11:23am 10.4 4.2 10.2 99 0.1 N 33 43 18 23 1017.6 - 0.0
28/11:00am 10.2 3.2 10.0 99 0.1 N 37 46 20 25 1017.9 - 0.0
28/10:30am 9.8 2.7 9.7 99 0.1 N 37 50 20 27 1018.2 - 0.0
28/10:00am 9.7 2.6 9.6 99 0.1 N 37 44 20 24 1018.1 - 0.0
28/09:30am 9.5 3.1 9.4 99 0.1 N 33 44 18 24 1018.2 - 0.0
28/09:00am 9.3 2.9 9.2 99 0.1 N 33 44 18 24 1018.4 1018.7 0.2
28/08:30am 9.3 2.5 9.2 99 0.1 N 35 46 19 25 1018.7 - 0.2
28/08:00am 9.3 2.1 9.2 99 0.1 N 37 46 20 25 1018.4 - 0.2
28/07:30am 9.3 2.9 9.2 99 0.1 N 33 41 18 22 1018.7 - 0.2
28/07:00am 9.4 3.0 9.3 99 0.1 N 33 41 18 22 1018.6 - 0.0
28/06:30am 9.4 3.0 9.3 99 0.1 N 33 43 18 23 1018.2 - 0.0
28/06:00am 9.3 3.1 9.2 99 0.1 N 32 41 17 22 1018.1 1018.4 0.0
28/05:30am 9.4 3.6 9.3 99 0.1 N 30 41 16 22 1018.2 - 0.0
28/05:00am 9.5 3.3 9.4 99 0.1 N 32 41 17 22 1018.4 - 0.0
28/04:30am 9.4 3.9 9.3 99 0.1 N 28 33 15 18 1018.7 - 0.0
28/04:00am 9.5 3.7 9.4 99 0.1 N 30 37 16 20 1018.4 - 0.0
28/03:30am 9.6 3.4 9.5 99 0.1 N 32 41 17 22 1018.4 - 0.0
28/03:00am 9.4 3.6 9.3 99 0.1 N 30 37 16 20 1018.9 1019.2 0.0
28/02:30am 9.2 3.7 9.1 99 0.1 N 28 32 15 17 1019.3 - 0.0
28/02:00am 9.1 3.6 9.0 99 0.1 N 28 33 15 18 1019.4 - 0.0
28/01:30am 8.8 3.2 8.7 99 0.1 N 28 33 15 18 1019.5 - 0.0
28/01:00am 8.7 3.1 8.6 99 0.0 N 28 33 15 18 1019.4 - 0.0
28/12:30am 8.6 2.9 8.5 99 0.0 N 28 33 15 18 1019.6 - 0.0
28/12:00am 8.8 3.1 8.5 98 0.1 N 28 33 15 18 1019.8 1020.1 0.0
 
Date/Time
EST
Temp
°C
App
Temp
°C
Dew
Point
Rel
Hum
%
Delta-T
°C
Wind Press
QNH
hPa
Press
MSL
hPa
Rain
since 9 am
mm
Dir
 
Spd
km/h
Gust
km/h
Spd
kts
Gust
kts
27/11:56pm 8.8 3.1 8.5 98 0.1 N 28 33 15 18 1019.9 - 0.0
27/11:30pm 9.1 3.1 8.8 98 0.2 N 30 35 16 19 1020.0 - 0.0
27/11:00pm 9.3 3.4 9.0 98 0.2 N 30 37 16 20 1020.0 - 0.0
27/10:30pm 8.9 3.3 8.6 98 0.2 N 28 35 15 19 1020.1 - 0.0
27/10:05pm 9.2 3.3 8.9 98 0.2 N 30 37 16 20 1020.1 - 0.0
27/10:00pm 9.3 3.4 9.0 98 0.2 N 30 37 16 20 1020.0 - 0.0
27/09:30pm 9.8 4.0 9.3 97 0.3 N 30 35 16 19 1019.9 - 0.0
27/09:00pm 9.7 3.8 9.2 97 0.3 N 30 37 16 20 1019.8 1020.1 0.0
27/08:30pm 9.5 4.3 9.0 97 0.3 N 26 33 14 18 1019.9 - 0.0
27/08:00pm 9.6 4.4 9.0 96 0.3 N 26 32 14 17 1020.0 - 0.0
27/07:30pm 9.6 4.4 8.7 94 0.5 N 26 32 14 17 1020.0 - 0.0
27/07:00pm 9.8 4.9 8.6 92 0.6 NNE 24 32 13 17 1019.9 - 0.0
27/06:30pm 10.2 5.0 8.8 91 0.7 NNE 26 32 14 17 1019.8 - 0.0
27/06:00pm 10.4 4.4 8.7 89 0.9 N 30 35 16 19 1019.6 1019.9 0.0
27/05:30pm 10.5 4.9 8.6 88 1.0 N 28 35 15 19 1019.6 - 0.0
27/05:00pm 11.1 5.1 8.7 85 1.2 N 30 37 16 20 1019.3 - 0.0
27/04:30pm 11.8 6.2 8.8 82 1.5 N 28 35 15 19 1019.2 - 0.0
27/04:00pm 12.0 5.7 8.8 81 1.6 N 32 43 17 23 1019.1 - 0.0
27/03:30pm 12.6 6.3 9.1 79 1.8 N 32 39 17 21 1019.1 - 0.0
27/03:00pm 12.5 6.2 8.8 78 1.9 N 32 39 17 21 1019.2 1019.5 0.0
27/02:30pm 12.6 6.1 9.1 79 1.8 N 33 43 18 23 1019.0 - 0.0
27/02:00pm 12.3 5.4 8.8 79 1.8 N 35 43 19 23 1019.1 - 0.0
27/01:30pm 12.2 5.3 8.7 79 1.8 N 35 46 19 25 1019.3 - 0.0
27/01:00pm 11.1 4.4 8.0 81 1.6 N 33 43 18 23 1019.7 - 0.0
27/12:30pm 10.5 4.8 8.3 86 1.1 N 28 39 15 21 1020.1 - 0.0
27/12:00pm 11.3 4.2 8.2 81 1.6 N 35 43 19 23 1020.6 1020.9 0.0
27/11:30am 11.1 4.0 8.0 81 1.6 N 35 44 19 24 1020.9 - 0.0
27/11:00am 10.4 1.7 7.6 83 1.4 N 43 56 23 30 1021.1 - 0.0
27/10:30am 9.7 0.6 7.0 83 1.3 N 44 54 24 29 1021.1 - 0.0

Other Formats:

Comma delimited format used in spreadsheet applications
http://www.bom.gov.au/fwo/IDV60801/IDV60801.94860.axf

JavaScript Object Notation format (JSON) in row-major order
http://www.bom.gov.au/fwo/IDV60801/IDV60801.94860.json